< < Back
Terminal Aerodrome Forecast


Current Version              Previous Versions:   1  2  3  4  5  6  7  8  9  

Terminal Aerodrome Forecast

618
FTUS44 KOHX 291700 RRA
TAFBNA
TAF
KBNA 291743Z 2918/3018 18010KT P6SM VCSH SCT020 BKN050
     FM292100 17010KT P6SM VCSH BKN035 OVC070
     FM300000 17007KT P6SM OVC080
      TEMPO 3008/3012 5SM BR
     FM301400 19012KT P6SM VCTS BKN030CB BKN080=



Latest METAR

575
SAUS70 KWBC 301000 RRA
MTRBNA
METAR KBNA 300953Z 17006KT 10SM CLR 20/18 A3008 RMK AO2 SLP180
T02000178


USA.gov is the U.S. government's official web portal to all federal, state and local government web resources and services.